This is the latest recevied weather packets stored in our database for station/object SV9TNF-1. If no packets are shown the sender has not sent any weather packets the latest 10 day(s).
| Time | Temp. | Humidity | Pressure | Rain* | Wind** | Luminosity | Snow |
|---|---|---|---|---|---|---|---|
| 1778125248 | 16.11° C | 51% | 1005.4 hPa | 0 mm | 0 m/s | - | - |
| 1778124948 | 16.11° C | 52% | 1005.1 hPa | 0 mm | 0 m/s | - | - |
| 1778124647 | 15.56° C | 53% | 1005.1 hPa | 0 mm | 0 m/s | - | - |
| 1778124347 | 15.56° C | 54% | 1005.1 hPa | 0 mm | 0 m/s | - | - |
| 1778124047 | 15° C | 57% | 1005.4 hPa | 0 mm | 0 m/s | - | - |
| 1778123747 | 15.56° C | 57% | 1005.4 hPa | 0 mm | 0 m/s | - | - |
| 1778123447 | 15.56° C | 51% | 1005.4 hPa | 0 mm | 0 m/s | - | - |
| 1778123146 | 15.56° C | 46% | 1005.4 hPa | 0 mm | 0 m/s | - | - |
| 1778122847 | 15.56° C | 46% | 1005.4 hPa | 0 mm | 0 m/s | - | - |
| 1778122547 | 16.11° C | 46% | 1005.1 hPa | 0 mm | 1.34 m/s, 130° | - | - |
| 1778122246 | 16.11° C | 47% | 1005.1 hPa | 0 mm | 1.34 m/s, 133° | - | - |
| 1778121946 | 16.11° C | 45% | 1005.1 hPa | 0 mm | 0.89 m/s, 133° | - | - |
| 1778121646 | 16.67° C | 42% | 1005.1 hPa | 0 mm | 0.45 m/s, 130° | - | - |
| 1778121346 | 16.67° C | 39% | 1005.1 hPa | 0 mm | 0.45 m/s, 131° | - | - |
| 1778121046 | 16.67° C | 42% | 1005.1 hPa | 0 mm | 1.79 m/s, 119° | - | - |
| 1778120747 | 16.67° C | 42% | 1005.1 hPa | 0 mm | 0.89 m/s, 125° | - | - |
| 1778120446 | 16.67° C | 38% | 1005.1 hPa | 0 mm | 0 m/s | - | - |
| 1778120146 | 16.67° C | 38% | 1005.1 hPa | 0 mm | 2.68 m/s, 90° | - | - |
| 1778119845 | 16.67° C | 41% | 1005.1 hPa | 0 mm | 0 m/s | - | - |
| 1778119545 | 16.67° C | 39% | 1005.1 hPa | 0 mm | 0.89 m/s, 127° | - | - |
| 1778119245 | 16.67° C | 40% | 1005.1 hPa | 0 mm | 0 m/s | - | - |
| 1778118945 | 16.67° C | 37% | 1005.1 hPa | 0 mm | 0 m/s | - | - |
| 1778118645 | 17.22° C | 37% | 1005.1 hPa | 0 mm | 0 m/s | - | - |
| 1778118345 | 17.22° C | 37% | 1005.1 hPa | 0 mm | 1.34 m/s, 123° | - | - |
| 1778118045 | 16.67° C | 38% | 1005.1 hPa | 0 mm | 1.79 m/s, 114° | - | - |
* Rain latest hour (hover to see other rain measurements)
** Current wind speed in m/s (hover to see current wind gust speed)